Time;durP1;ratioP1;P1;durP2;ratioP2;P2;SDS_P1;SDS_P2;PMS_P1;PMS_P2;Temp;Humidity;BMP_temperature;BMP_pressure;BME280_temperature;BME280_humidity;BME280_pressure;Samples;Min_cycle;Max_cycle;Signal;HPM_P1;HPM_P2
2023/03/18 00:00:17;;;;;;;;;;;;;;;17.11;43.16;99789.09;4959943;28;7212;-75
2023/03/18 00:02:45;;;;;;;;;;;;;;;17.09;43.46;99802.03;4965213;28;7332;-76
2023/03/18 00:05:13;;;;;;;;;;;;;;;17.04;43.92;99807.13;4982423;28;6780;-75
2023/03/18 00:07:39;;;;;;;;;;;;;;;17.00;44.06;99805.38;4985705;28;7112;-75
2023/03/18 00:10:09;;;;;;;;;;;;;;;16.97;44.33;99804.44;4970625;28;6951;-76
2023/03/18 00:12:37;;;;;;;;;;;;;;;16.94;44.11;99792.31;4978190;28;9613;-74
2023/03/18 00:15:06;;;;;;;;;;;;;;;16.93;44.36;99788.84;4953647;28;7245;-75
2023/03/18 00:17:32;;;;;;;;;;;;;;;16.94;44.42;99793.16;4955821;28;6788;-75
2023/03/18 00:20:04;;;;;;;;;;;;;;;16.95;44.35;99804.41;4981906;28;6958;-75
2023/03/18 00:22:34;;;;;;;;;;;;;;;16.94;44.67;99807.84;4984360;28;6799;-75
2023/03/18 00:25:01;;;;;;;;;;;;;;;16.92;44.40;99805.22;4982089;28;7645;-75
2023/03/18 00:27:27;;;;;;;;;;;;;;;16.93;44.76;99798.34;4984174;28;7839;-75
2023/03/18 00:29:53;;;;;;;;;;;;;;;16.92;44.83;99796.63;4987468;28;6764;-75
2023/03/18 00:32:20;;;;;;;;;;;;;;;16.93;45.17;99800.94;4980872;28;6776;-75
2023/03/18 00:34:45;;;;;;;;;;;;;;;16.94;45.23;99810.44;4979778;28;6800;-75
2023/03/18 00:37:17;;;;;;;;;;;;;;;16.93;44.99;99817.31;4986111;28;7482;-75
2023/03/18 00:39:45;;;;;;;;;;;;;;;16.93;45.16;99832.00;4966740;28;6993;-75
2023/03/18 00:42:13;;;;;;;;;;;;;;;16.89;45.35;99827.63;4971980;28;7433;-75
2023/03/18 00:44:39;;;;;;;;;;;;;;;16.87;45.65;99839.66;4975021;28;7088;-75
2023/03/18 00:47:05;;;;;;;;;;;;;;;16.76;45.75;99837.81;4985304;28;6934;-75
2023/03/18 00:49:30;;;;;;;;;;;;;;;16.61;46.32;99822.06;4990233;28;7008;-75
2023/03/18 00:51:56;;;;;;;;;;;;;;;16.41;46.54;99820.06;4970628;28;6796;-75
2023/03/18 00:54:23;;;;;;;;;;;;;;;16.28;47.30;99821.63;4989502;28;7030;-75
2023/03/18 00:56:49;;;;;;;;;;;;;;;16.18;47.43;99809.41;4981876;28;7000;-75
2023/03/18 00:59:15;;;;;;;;;;;;;;;16.10;47.68;99809.25;4984895;28;7406;-75
2023/03/18 01:01:41;;;;;;;;;;;;;;;16.06;48.18;99807.47;4983803;28;6793;-75
2023/03/18 01:04:07;;;;;;;;;;;;;;;16.07;48.45;99804.03;4978025;28;8295;-75
2023/03/18 01:06:36;;;;;;;;;;;;;;;16.08;48.33;99795.44;4985073;28;7841;-75
2023/03/18 01:09:05;;;;;;;;;;;;;;;16.10;48.76;99783.41;4984253;28;8103;-75
2023/03/18 01:11:32;;;;;;;;;;;;;;;16.11;49.05;99769.63;4995749;28;7012;-75
2023/03/18 01:13:58;;;;;;;;;;;;;;;16.12;49.05;99786.88;4985486;28;6975;-75
2023/03/18 01:16:24;;;;;;;;;;;;;;;16.11;48.81;99787.72;4986402;28;7105;-75
2023/03/18 01:18:50;;;;;;;;;;;;;;;16.08;49.16;99791.16;4989127;28;7087;-75
2023/03/18 01:21:16;;;;;;;;;;;;;;;16.04;49.28;99804.84;4986872;28;6772;-75
2023/03/18 01:23:43;;;;;;;;;;;;;;;15.99;49.40;99800.47;4979807;28;7105;-75
2023/03/18 01:26:09;;;;;;;;;;;;;;;15.92;49.32;99804.66;4985058;28;7136;-74
2023/03/18 01:28:35;;;;;;;;;;;;;;;15.82;49.50;99796.72;4986059;28;7410;-74
2023/03/18 01:31:01;;;;;;;;;;;;;;;15.72;49.83;99807.75;4988469;28;6784;-74
2023/03/18 01:33:28;;;;;;;;;;;;;;;15.63;49.12;99805.84;4987223;28;8027;-74
2023/03/18 01:35:58;;;;;;;;;;;;;;;15.51;49.19;99805.66;4994856;28;6808;-75
2023/03/18 01:38:29;;;;;;;;;;;;;;;15.39;49.84;99804.59;4998402;28;7001;-75
2023/03/18 01:40:55;;;;;;;;;;;;;;;15.28;49.40;99808.69;4983243;28;7026;-75
2023/03/18 01:43:30;;;;;;;;;;;;;;;15.14;50.00;99806.69;4973407;28;7203;-75
2023/03/18 01:45:59;;;;;;;;;;;;;;;15.03;49.87;99805.59;4985556;28;7743;-74
2023/03/18 01:48:30;;;;;;;;;;;;;;;14.92;50.18;99807.97;4977521;28;6908;-75
2023/03/18 01:51:04;;;;;;;;;;;;;;;14.79;50.11;99809.44;4985767;28;7148;-75
2023/03/18 01:53:46;;;;;;;;;;;;;;;14.67;50.58;99812.56;4989110;28;6976;-75
2023/03/18 01:56:14;;;;;;;;;;;;;;;14.56;51.01;99811.47;4982512;28;6965;-75
2023/03/18 01:58:45;;;;;;;;;;;;;;;14.43;50.40;99802.59;5000052;28;7161;-75
2023/03/18 02:01:42;;;;;;;;;;;;;;;14.32;51.04;99804.06;4969900;28;8643;-75
2023/03/18 02:04:09;;;;;;;;;;;;;;;14.19;51.09;99808.03;4983636;28;7201;-75
2023/03/18 02:06:37;;;;;;;;;;;;;;;14.10;51.36;99811.25;4992112;28;6810;-75
2023/03/18 02:09:03;;;;;;;;;;;;;;;13.99;51.19;99809.28;4989858;28;6803;-75
2023/03/18 02:11:38;;;;;;;;;;;;;;;13.90;51.46;99811.63;4984377;28;8100;-75
2023/03/18 02:14:08;;;;;;;;;;;;;;;13.81;51.45;99807.13;4984843;28;6913;-75
2023/03/18 02:16:49;;;;;;;;;;;;;;;13.72;51.36;99809.47;4985522;28;6799;-75
2023/03/18 02:19:45;;;;;;;;;;;;;;;13.65;52.38;99811.03;4974413;28;6812;-75
2023/03/18 02:22:32;;;;;;;;;;;;;;;13.56;51.90;99816.78;4985463;28;6821;-75
2023/03/18 02:25:47;;;;;;;;;;;;;;;13.50;52.61;99818.34;4987991;28;7702;-75
2023/03/18 02:28:23;;;;;;;;;;;;;;;13.43;53.20;99818.16;4986881;28;6820;-75
2023/03/18 02:31:02;;;;;;;;;;;;;;;13.40;53.12;99819.78;4984294;28;6828;-75
2023/03/18 02:33:37;;;;;;;;;;;;;;;13.36;53.10;99821.38;4981047;28;6807;-75
2023/03/18 02:36:10;;;;;;;;;;;;;;;13.34;52.45;99815.34;4984646;28;6824;-75
2023/03/18 02:38:41;;;;;;;;;;;;;;;13.32;53.05;99817.84;4970709;28;6820;-75
2023/03/18 02:41:21;;;;;;;;;;;;;;;13.33;52.64;99818.75;4982976;28;7306;-75
2023/03/18 02:43:47;;;;;;;;;;;;;;;13.32;53.24;99827.25;4963775;28;8168;-75
2023/03/18 02:46:29;;;;;;;;;;;;;;;13.31;53.62;99821.25;4985270;28;7197;-75
2023/03/18 02:48:58;;;;;;;;;;;;;;;13.30;52.94;99818.63;4985711;28;6947;-75
2023/03/18 02:51:25;;;;;;;;;;;;;;;13.28;53.47;99821.19;4966845;28;7177;-75
2023/03/18 02:54:10;;;;;;;;;;;;;;;13.25;53.11;99818.50;4982804;28;6816;-75
2023/03/18 02:56:40;;;;;;;;;;;;;;;13.20;53.25;99823.53;4980083;28;6981;-75
2023/03/18 02:59:06;;;;;;;;;;;;;;;13.14;52.97;99815.66;4976878;28;7299;-75
2023/03/18 03:01:35;;;;;;;;;;;;;;;13.09;53.22;99819.78;4981732;28;6856;-75
2023/03/18 03:04:02;;;;;;;;;;;;;;;13.03;53.45;99822.16;4967025;28;7063;-74
2023/03/18 03:06:28;;;;;;;;;;;;;;;12.97;53.35;99827.16;4944600;28;7000;-75
2023/03/18 03:08:53;;;;;;;;;;;;;;;12.92;53.15;99820.16;4983660;28;7254;-75
2023/03/18 03:11:20;;;;;;;;;;;;;;;12.90;53.65;99826.13;4969280;28;7466;-75
2023/03/18 03:13:46;;;;;;;;;;;;;;;12.92;54.09;99825.31;4983584;28;7004;-75
2023/03/18 03:16:14;;;;;;;;;;;;;;;13.01;55.00;99831.56;4963737;28;6764;-74
2023/03/18 03:18:41;;;;;;;;;;;;;;;13.12;56.19;99830.16;4965110;28;7066;-75
2023/03/18 03:21:07;;;;;;;;;;;;;;;13.28;55.38;99833.16;4976695;28;6979;-75
2023/03/18 03:23:33;;;;;;;;;;;;;;;13.41;56.36;99832.66;4987677;28;6974;-75
2023/03/18 03:25:59;;;;;;;;;;;;;;;13.57;56.11;99838.28;4985650;28;7197;-74
2023/03/18 03:28:25;;;;;;;;;;;;;;;13.70;55.49;99842.91;4987619;28;7025;-75
2023/03/18 03:30:51;;;;;;;;;;;;;;;13.84;56.01;99847.56;4982552;28;6863;-75
2023/03/18 03:33:17;;;;;;;;;;;;;;;13.96;55.71;99842.72;4983998;28;6962;-75
2023/03/18 03:35:43;;;;;;;;;;;;;;;14.07;55.57;99852.41;4989036;28;6768;-75
2023/03/18 03:38:09;;;;;;;;;;;;;;;14.19;55.37;99850.13;4979624;28;6973;-75
2023/03/18 03:40:37;;;;;;;;;;;;;;;14.29;55.41;99853.81;4984098;28;7023;-75
2023/03/18 03:43:04;;;;;;;;;;;;;;;14.41;56.50;99851.53;4982987;28;7336;-75
2023/03/18 03:45:32;;;;;;;;;;;;;;;14.53;56.60;99861.25;4990874;28;6788;-75
2023/03/18 03:47:58;;;;;;;;;;;;;;;14.65;55.51;99864.94;4968408;28;6985;-72
2023/03/18 03:50:25;;;;;;;;;;;;;;;14.74;55.74;99862.63;4987252;28;7227;-73
2023/03/18 03:52:51;;;;;;;;;;;;;;;14.84;55.43;99859.41;4985109;28;6989;-72
2023/03/18 03:55:20;;;;;;;;;;;;;;;14.96;55.33;99860.50;4973295;28;7149;-75
2023/03/18 03:57:46;;;;;;;;;;;;;;;15.05;55.99;99849.50;4977116;28;6857;-75
2023/03/18 04:00:19;;;;;;;;;;;;;;;15.13;55.84;99859.16;4985428;28;6796;-75
2023/03/18 04:02:47;;;;;;;;;;;;;;;15.22;55.52;99870.50;4973154;28;9667;-75
2023/03/18 04:05:17;;;;;;;;;;;;;;;15.29;55.11;99869.78;4968503;28;6792;-75
2023/03/18 04:07:45;;;;;;;;;;;;;;;15.36;55.15;99875.94;4984712;28;7123;-75
2023/03/18 04:10:15;;;;;;;;;;;;;;;15.44;55.24;99889.00;4982079;28;6808;-75
2023/03/18 04:12:41;;;;;;;;;;;;;;;15.49;55.17;99885.66;4976454;28;7063;-75
2023/03/18 04:15:08;;;;;;;;;;;;;;;15.57;54.76;99885.84;4986890;28;6848;-75
2023/03/18 04:17:34;;;;;;;;;;;;;;;15.61;54.51;99887.63;4970611;28;6847;-75
2023/03/18 04:20:00;;;;;;;;;;;;;;;15.67;54.51;99882.59;4985294;28;6772;-75
2023/03/18 04:22:27;;;;;;;;;;;;;;;15.74;54.46;99893.00;4985109;28;6968;-75
2023/03/18 04:24:52;;;;;;;;;;;;;;;15.77;54.15;99893.09;4979735;28;6995;-75
2023/03/18 04:27:18;;;;;;;;;;;;;;;15.81;53.98;99900.03;4979290;28;8496;-75
2023/03/18 04:29:44;;;;;;;;;;;;;;;15.86;54.09;99897.53;4966801;28;6815;-75
2023/03/18 04:32:10;;;;;;;;;;;;;;;15.90;53.64;99905.41;4956827;28;6975;-75
2023/03/18 04:34:37;;;;;;;;;;;;;;;15.92;53.24;99903.72;4985389;28;7054;-75
2023/03/18 04:37:03;;;;;;;;;;;;;;;15.96;53.71;99905.53;4988758;28;7299;-75
2023/03/18 04:39:29;;;;;;;;;;;;;;;15.98;53.64;99900.38;4969729;28;7862;-75
2023/03/18 04:41:58;;;;;;;;;;;;;;;15.99;53.28;99903.84;4976938;28;6847;-75
2023/03/18 04:44:24;;;;;;;;;;;;;;;15.97;53.60;99914.16;4966072;28;6816;-75
2023/03/18 04:46:52;;;;;;;;;;;;;;;15.93;53.37;99908.06;4963281;28;6772;-75
2023/03/18 04:49:18;;;;;;;;;;;;;;;15.93;53.44;99912.34;4982298;28;6988;-75
2023/03/18 04:51:45;;;;;;;;;;;;;;;15.90;53.56;99910.59;4984291;28;6808;-75
2023/03/18 04:54:11;;;;;;;;;;;;;;;15.88;53.26;99916.53;4960844;28;7111;-75
2023/03/18 04:56:38;;;;;;;;;;;;;;;15.82;53.54;99915.59;4974558;28;7335;-74
2023/03/18 04:59:04;;;;;;;;;;;;;;;15.76;53.13;99912.88;4983746;28;6838;-75
2023/03/18 05:01:30;;;;;;;;;;;;;;;15.71;53.17;99914.53;4953722;28;7190;-75
2023/03/18 05:03:56;;;;;;;;;;;;;;;15.63;53.48;99916.06;4961469;28;6923;-75
2023/03/18 05:06:25;;;;;;;;;;;;;;;15.56;53.55;99909.94;4966055;28;6788;-75
2023/03/18 05:08:52;;;;;;;;;;;;;;;15.48;52.90;99914.06;4959027;28;8074;-75
2023/03/18 05:11:19;;;;;;;;;;;;;;;15.39;53.58;99910.44;4976185;28;6847;-75
2023/03/18 05:13:45;;;;;;;;;;;;;;;15.31;53.45;99911.16;4973244;28;6799;-75
2023/03/18 05:16:11;;;;;;;;;;;;;;;15.20;53.79;99916.91;4979365;28;7248;-75
2023/03/18 05:18:39;;;;;;;;;;;;;;;15.09;53.19;99918.41;4981260;28;7046;-75
2023/03/18 05:21:09;;;;;;;;;;;;;;;14.98;53.71;99921.63;4985388;28;6800;-75
2023/03/18 05:23:35;;;;;;;;;;;;;;;14.90;54.02;99922.31;4988247;28;6884;-75
2023/03/18 05:26:02;;;;;;;;;;;;;;;14.80;53.48;99919.50;4972125;28;9065;-75
2023/03/18 05:28:28;;;;;;;;;;;;;;;14.72;53.94;99921.00;4959838;28;7096;-75
2023/03/18 05:30:54;;;;;;;;;;;;;;;14.65;54.12;99921.69;4976954;28;7983;-75
2023/03/18 05:33:19;;;;;;;;;;;;;;;14.56;54.58;99925.78;4966038;28;7193;-75
2023/03/18 05:35:45;;;;;;;;;;;;;;;14.50;54.19;99925.66;4976652;28;7331;-75
2023/03/18 05:38:11;;;;;;;;;;;;;;;14.44;55.06;99933.22;4967442;28;7272;-75
2023/03/18 05:40:38;;;;;;;;;;;;;;;14.40;54.63;99931.44;4963250;28;7000;-75
2023/03/18 05:43:04;;;;;;;;;;;;;;;14.40;54.93;99928.84;4980363;28;7186;-75
2023/03/18 05:45:29;;;;;;;;;;;;;;;14.38;55.33;99922.75;4972598;28;6836;-75
2023/03/18 05:47:56;;;;;;;;;;;;;;;14.38;54.84;99918.50;4983488;28;6823;-75
2023/03/18 05:50:39;;;;;;;;;;;;;;;14.39;55.22;99932.22;4985913;28;6840;-75
2023/03/18 05:53:06;;;;;;;;;;;;;;;14.37;55.82;99927.06;4984892;28;6804;-75
2023/03/18 05:55:32;;;;;;;;;;;;;;;14.37;55.10;99929.63;4981896;28;6996;-74
2023/03/18 05:57:59;;;;;;;;;;;;;;;14.38;55.32;99933.06;4988737;28;6792;-75
2023/03/18 06:00:29;;;;;;;;;;;;;;;14.36;55.15;99927.00;4969888;28;6981;-75
2023/03/18 06:02:58;;;;;;;;;;;;;;;14.36;55.18;99929.59;4976056;28;6939;-75
2023/03/18 06:05:24;;;;;;;;;;;;;;;14.35;55.72;99925.28;4984541;28;6982;-75
2023/03/18 06:07:51;;;;;;;;;;;;;;;14.34;55.43;99927.00;4980107;28;7741;-75
2023/03/18 06:10:17;;;;;;;;;;;;;;;14.35;56.02;99938.16;4972401;28;7021;-75
2023/03/18 06:12:43;;;;;;;;;;;;;;;14.37;55.90;99931.31;4972796;28;7237;-75
2023/03/18 06:15:12;;;;;;;;;;;;;;;14.37;55.72;99932.22;4980135;28;6964;-75
2023/03/18 06:17:38;;;;;;;;;;;;;;;14.37;55.38;99932.22;4965717;28;6808;-75
2023/03/18 06:20:07;;;;;;;;;;;;;;;14.38;55.10;99933.97;4983230;28;7249;-75
2023/03/18 06:22:34;;;;;;;;;;;;;;;14.37;55.01;99931.31;4963047;28;6864;-75
2023/03/18 06:25:01;;;;;;;;;;;;;;;14.36;55.36;99929.59;4982290;28;6935;-75
2023/03/18 06:27:27;;;;;;;;;;;;;;;14.38;56.04;99933.06;4962598;28;6996;-75
2023/03/18 06:29:53;;;;;;;;;;;;;;;14.40;55.99;99936.59;4981480;28;6876;-75
2023/03/18 06:32:18;;;;;;;;;;;;;;;14.42;55.73;99938.34;4965862;28;7837;-75
2023/03/18 06:34:44;;;;;;;;;;;;;;;14.48;56.45;99945.34;4980371;28;7089;-75
2023/03/18 06:37:10;;;;;;;;;;;;;;;14.57;56.03;99955.03;4969345;28;8191;-75
2023/03/18 06:39:36;;;;;;;;;;;;;;;14.64;56.25;99951.78;4977551;28;6893;-75
2023/03/18 06:42:03;;;;;;;;;;;;;;;14.74;56.71;99946.88;4976053;28;7179;-75
2023/03/18 06:44:28;;;;;;;;;;;;;;;14.82;56.82;99951.38;4964917;28;7243;-75
2023/03/18 06:46:55;;;;;;;;;;;;;;;14.94;55.77;99963.69;4981939;28;7825;-75
2023/03/18 06:49:20;;;;;;;;;;;;;;;15.02;56.34;99961.28;4989790;28;6804;-75
2023/03/18 06:51:47;;;;;;;;;;;;;;;15.09;56.07;99955.44;4975724;28;7448;-75
2023/03/18 06:54:13;;;;;;;;;;;;;;;15.19;56.46;99965.97;4960364;28;6788;-75
2023/03/18 06:56:40;;;;;;;;;;;;;;;15.25;55.77;99966.97;4978007;28;6983;-75
2023/03/18 06:59:08;;;;;;;;;;;;;;;15.31;55.88;99966.22;4983570;28;7151;-75
2023/03/18 07:01:35;;;;;;;;;;;;;;;15.36;55.88;99958.56;4983124;28;6812;-75
2023/03/18 07:04:05;;;;;;;;;;;;;;;15.40;55.46;99956.09;4991771;28;6859;-75
2023/03/18 07:06:31;;;;;;;;;;;;;;;15.45;55.67;99960.47;4972959;28;6998;-75
2023/03/18 07:08:59;;;;;;;;;;;;;;;15.52;55.49;99964.91;4982116;28;6968;-75
2023/03/18 07:11:26;;;;;;;;;;;;;;;15.59;55.70;99964.22;4979748;28;6959;-75
2023/03/18 07:13:52;;;;;;;;;;;;;;;15.66;55.28;99960.94;4973331;28;6776;-75
2023/03/18 07:16:18;;;;;;;;;;;;;;;15.75;55.44;99967.13;4981001;28;6768;-73
2023/03/18 07:18:44;;;;;;;;;;;;;;;15.86;55.32;99970.78;4983349;28;6788;-75
2023/03/18 07:21:10;;;;;;;;;;;;;;;15.98;55.37;99969.31;4966932;28;6942;-73
2023/03/18 07:23:36;;;;;;;;;;;;;;;16.12;55.34;99964.41;4968829;28;7272;-73
2023/03/18 07:26:02;;;;;;;;;;;;;;;16.24;55.41;99968.06;4984255;28;7832;-75
2023/03/18 07:28:28;;;;;;;;;;;;;;;16.37;55.20;99964.00;4978659;28;7868;-73
2023/03/18 07:30:53;;;;;;;;;;;;;;;16.52;54.71;99967.66;4976838;28;7034;-73
2023/03/18 07:33:19;;;;;;;;;;;;;;;16.66;54.72;99975.66;4987851;28;6779;-73
2023/03/18 07:35:44;;;;;;;;;;;;;;;16.75;54.43;99975.81;4988105;28;6768;-73
2023/03/18 07:38:11;;;;;;;;;;;;;;;16.85;53.63;99976.84;4988602;28;6768;-76
2023/03/18 07:40:37;;;;;;;;;;;;;;;16.93;53.67;99972.63;4967499;28;7150;-73
2023/03/18 07:43:06;;;;;;;;;;;;;;;17.02;53.33;99981.41;4967856;28;6772;-74
2023/03/18 07:45:32;;;;;;;;;;;;;;;17.09;53.16;99975.47;4981101;28;6788;-76
2023/03/18 07:47:57;;;;;;;;;;;;;;;17.17;52.94;99979.06;4987897;28;7009;-72
2023/03/18 07:50:23;;;;;;;;;;;;;;;17.24;52.39;99981.72;4970924;28;6771;-74
2023/03/18 07:52:49;;;;;;;;;;;;;;;17.34;52.52;99983.59;4972283;28;7409;-72
2023/03/18 07:55:15;;;;;;;;;;;;;;;17.42;52.63;99989.72;4980586;28;7250;-74
2023/03/18 07:57:41;;;;;;;;;;;;;;;17.52;52.17;99982.97;4976656;28;7158;-74
2023/03/18 08:00:10;;;;;;;;;;;;;;;17.62;52.31;99992.59;4976591;28;6993;-73
2023/03/18 08:02:36;;;;;;;;;;;;;;;17.72;52.06;99992.72;4970463;28;11177;-76
2023/03/18 08:05:05;;;;;;;;;;;;;;;17.82;51.67;99999.75;4984072;28;6799;-74
2023/03/18 08:07:32;;;;;;;;;;;;;;;17.89;51.21;99996.38;4981382;28;6883;-72
2023/03/18 08:09:58;;;;;;;;;;;;;;;17.94;50.69;99996.44;4983854;28;6792;-73
2023/03/18 08:12:24;;;;;;;;;;;;;;;17.99;51.14;99996.47;4970017;28;6986;-75
2023/03/18 08:14:50;;;;;;;;;;;;;;;18.02;50.94;100005.16;4982925;28;6791;-73
2023/03/18 08:17:16;;;;;;;;;;;;;;;18.07;50.70;100002.66;4969981;28;6943;-73
2023/03/18 08:19:42;;;;;;;;;;;;;;;18.12;50.51;100010.47;4985029;28;6820;-73
2023/03/18 08:22:09;;;;;;;;;;;;;;;18.15;50.55;100013.09;4982548;28;6792;-74
2023/03/18 08:24:37;;;;;;;;;;;;;;;18.18;50.13;100003.63;4968797;28;6803;-74
2023/03/18 08:27:04;;;;;;;;;;;;;;;18.21;50.43;100008.00;4988134;28;6820;-74
2023/03/18 08:29:31;;;;;;;;;;;;;;;18.21;49.77;100000.22;4981756;28;6974;-76
2023/03/18 08:31:57;;;;;;;;;;;;;;;18.25;50.07;99998.50;4968014;28;7118;-75
2023/03/18 08:34:24;;;;;;;;;;;;;;;18.27;49.69;100007.19;4979293;28;6796;-76
2023/03/18 08:36:50;;;;;;;;;;;;;;;18.27;49.83;100009.78;4965982;28;7037;-71
2023/03/18 08:39:16;;;;;;;;;;;;;;;18.28;49.97;100009.78;4983555;28;6784;-72
2023/03/18 08:41:42;;;;;;;;;;;;;;;18.31;49.57;100011.53;4973178;28;7214;-71
2023/03/18 08:44:09;;;;;;;;;;;;;;;18.31;49.25;100016.72;4984231;28;7155;-71
2023/03/18 08:46:38;;;;;;;;;;;;;;;18.33;49.16;100009.81;4984381;28;6804;-71
2023/03/18 08:49:06;;;;;;;;;;;;;;;18.35;49.43;100005.53;4982446;28;7380;-72
2023/03/18 08:51:33;;;;;;;;;;;;;;;18.39;49.50;100009.88;4983325;28;6981;-72
2023/03/18 08:53:59;;;;;;;;;;;;;;;18.45;49.09;100009.97;4967904;28;6848;-72
2023/03/18 08:56:26;;;;;;;;;;;;;;;18.49;49.22;100010.81;4976722;28;6816;-74
2023/03/18 08:58:52;;;;;;;;;;;;;;;18.56;49.02;100010.03;4977753;28;7165;-72
2023/03/18 09:01:21;;;;;;;;;;;;;;;18.59;48.70;100010.09;4988276;28;6784;-71
2023/03/18 09:03:50;;;;;;;;;;;;;;;18.64;48.57;100006.66;4990360;28;7109;-71
2023/03/18 09:06:16;;;;;;;;;;;;;;;18.68;48.41;100005.78;4966869;28;7181;-73
2023/03/18 09:08:43;;;;;;;;;;;;;;;18.70;48.81;100004.97;4964068;28;6780;-74
2023/03/18 09:11:10;;;;;;;;;;;;;;;18.74;48.76;99998.97;4981413;28;7230;-72
2023/03/18 09:13:37;;;;;;;;;;;;;;;18.82;48.27;100000.72;4967738;28;7213;-71
2023/03/18 09:16:03;;;;;;;;;;;;;;;18.87;48.64;100012.03;4969605;28;6875;-71
2023/03/18 09:18:30;;;;;;;;;;;;;;;18.91;48.63;100010.31;4987796;28;8046;-72
2023/03/18 09:20:56;;;;;;;;;;;;;;;18.97;48.25;100010.34;4977103;28;6789;-73
2023/03/18 09:23:21;;;;;;;;;;;;;;;19.03;48.42;100012.19;4990084;28;7434;-71
2023/03/18 09:25:49;;;;;;;;;;;;;;;19.07;48.33;100006.13;4985507;28;7203;-72
2023/03/18 09:28:15;;;;;;;;;;;;;;;19.11;47.80;100010.47;4986283;28;8284;-72
2023/03/18 09:30:41;;;;;;;;;;;;;;;19.17;47.67;100002.75;4984011;28;7050;-75
2023/03/18 09:33:10;;;;;;;;;;;;;;;19.25;47.59;100005.38;4984121;28;7241;-72
2023/03/18 09:35:36;;;;;;;;;;;;;;;19.29;47.74;100005.41;4956200;28;6998;-73
2023/03/18 09:38:02;;;;;;;;;;;;;;;19.34;47.46;100008.03;4963242;28;7123;-70
2023/03/18 09:40:36;;;;;;;;;;;;;;;19.38;46.97;100016.72;4982821;28;7234;-71
2023/03/18 09:43:31;;;;;;;;;;;;;;;19.45;47.11;100015.88;4979141;28;7290;-74
2023/03/18 09:46:50;;;;;;;;;;;;;;;19.51;46.83;100013.34;4984802;28;6860;-74
2023/03/18 09:49:32;;;;;;;;;;;;;;;19.54;47.26;100013.34;4980693;28;7032;-71
2023/03/18 09:52:10;;;;;;;;;;;;;;;19.57;46.48;100013.34;4991343;28;7333;-73
2023/03/18 09:54:47;;;;;;;;;;;;;;;19.63;46.38;100007.31;4990572;28;6826;-73
2023/03/18 09:57:32;;;;;;;;;;;;;;;19.69;46.08;100011.66;4991157;28;6808;-71
2023/03/18 10:00:36;;;;;;;;;;;;;;;19.71;45.76;100009.97;4982192;28;6832;-71
2023/03/18 10:03:37;;;;;;;;;;;;;;;19.79;45.66;100003.03;4964022;28;12893;-72
2023/03/18 10:06:18;;;;;;;;;;;;;;;19.88;45.44;100011.72;4989803;28;6840;-70
2023/03/18 10:09:13;;;;;;;;;;;;;;;19.97;45.40;100004.88;4986544;28;7006;-71
2023/03/18 10:11:44;;;;;;;;;;;;;;;20.06;44.93;100001.41;4975835;28;7160;-73
2023/03/18 10:14:33;;;;;;;;;;;;;;;20.11;44.93;100001.44;4977555;28;7123;-74
2023/03/18 10:17:21;;;;;;;;;;;;;;;20.20;44.14;100000.59;4984162;28;6965;-71
2023/03/18 10:20:05;;;;;;;;;;;;;;;20.34;44.07;100000.63;4988626;28;7013;-72
2023/03/18 10:23:09;;;;;;;;;;;;;;;20.50;44.00;99998.91;4985232;28;6967;-73
2023/03/18 10:25:52;;;;;;;;;;;;;;;20.65;43.66;100006.69;4967738;28;8416;-72
2023/03/18 10:29:07;;;;;;;;;;;;;;;20.97;43.65;100006.72;4963662;28;7113;-71
2023/03/18 10:31:57;;;;;;;;;;;;;;;21.55;42.75;100007.47;4989742;28;6993;-73
2023/03/18 10:35:27;;;;;;;;;;;;;;;21.99;41.85;100001.19;4988130;28;6812;-72
2023/03/18 10:38:04;;;;;;;;;;;;;;;22.32;41.13;99998.38;4987875;28;7059;-72
2023/03/18 10:40:38;;;;;;;;;;;;;;;22.99;41.30;100005.72;4962293;28;6981;-71
2023/03/18 10:43:19;;;;;;;;;;;;;;;24.09;40.20;100003.59;4985982;28;6985;-72
2023/03/18 10:45:52;;;;;;;;;;;;;;;25.25;37.83;99998.22;4984393;28;6804;-74
2023/03/18 10:48:36;;;;;;;;;;;;;;;26.14;35.96;100001.66;4986925;28;6857;-72
2023/03/18 10:51:31;;;;;;;;;;;;;;;26.73;34.71;100008.97;4987928;28;6804;-71
2023/03/18 10:54:14;;;;;;;;;;;;;;;26.80;33.59;100011.47;4986474;28;6889;-71
2023/03/18 10:56:41;;;;;;;;;;;;;;;26.25;33.01;100014.53;4945148;28;8066;-74
2023/03/18 10:59:16;;;;;;;;;;;;;;;25.60;33.94;100015.03;4983840;28;7077;-71
2023/03/18 11:01:51;;;;;;;;;;;;;;;25.10;34.41;100005.47;4983389;28;7002;-71
2023/03/18 11:04:23;;;;;;;;;;;;;;;24.75;34.71;100006.94;4968363;28;6807;-72
2023/03/18 11:06:54;;;;;;;;;;;;;;;24.54;34.48;100014.28;4990419;28;6788;-72
2023/03/18 11:09:32;;;;;;;;;;;;;;;24.73;35.09;100016.59;4990770;28;6884;-73
2023/03/18 11:12:05;;;;;;;;;;;;;;;25.16;34.67;100011.50;4989505;28;6803;-73
2023/03/18 11:14:36;;;;;;;;;;;;;;;25.37;34.26;100005.81;4992648;28;7126;-75
2023/03/18 11:17:17;;;;;;;;;;;;;;;25.32;33.93;100001.56;4978612;28;7015;-71
2023/03/18 11:20:06;;;;;;;;;;;;;;;25.05;34.60;100007.31;4982425;28;7084;-75
2023/03/18 11:22:35;;;;;;;;;;;;;;;24.78;34.76;99998.19;4993400;28;7289;-79
2023/03/18 11:25:25;;;;;;;;;;;;;;;24.64;35.47;100003.66;4984287;28;8761;-78
2023/03/18 11:28:04;;;;;;;;;;;;;;;24.50;35.33;100001.25;4969441;28;6812;-78
2023/03/18 11:30:47;;;;;;;;;;;;;;;24.41;35.54;99997.88;4980229;28;7266;-77
2023/03/18 11:33:16;;;;;;;;;;;;;;;24.38;35.15;100003.16;4962942;28;7630;-78
2023/03/18 11:35:56;;;;;;;;;;;;;;;24.34;35.76;99998.84;4984305;28;8575;-77
2023/03/18 11:38:32;;;;;;;;;;;;;;;24.26;35.34;100004.22;4965912;28;7025;-74
2023/03/18 11:41:07;;;;;;;;;;;;;;;24.15;35.69;100000.03;4965661;28;7143;-77
2023/03/18 11:43:36;;;;;;;;;;;;;;;24.11;35.46;100000.09;4984209;28;6815;-77
2023/03/18 11:46:11;;;;;;;;;;;;;;;24.12;35.99;99995.69;4954684;28;10267;-77
2023/03/18 11:48:41;;;;;;;;;;;;;;;24.16;36.03;99997.41;4975424;28;6792;-77
2023/03/18 11:51:24;;;;;;;;;;;;;;;24.15;35.34;100000.91;4962137;28;6800;-77
2023/03/18 11:54:05;;;;;;;;;;;;;;;24.03;35.18;99999.28;4984057;28;7025;-78
2023/03/18 11:56:47;;;;;;;;;;;;;;;23.93;35.24;100001.16;4969260;28;7003;-78
2023/03/18 11:59:37;;;;;;;;;;;;;;;23.82;35.90;99997.81;4969332;28;8513;-78
2023/03/18 12:02:29;;;;;;;;;;;;;;;23.68;36.04;99998.88;4984469;28;6996;-76
2023/03/18 12:05:50;;;;;;;;;;;;;;;23.49;35.08;100006.06;4968742;28;7014;-79
2023/03/18 12:08:40;;;;;;;;;;;;;;;23.26;35.63;99999.34;4978956;28;6828;-75
2023/03/18 12:11:40;;;;;;;;;;;;;;;23.12;35.79;99995.97;4972026;28;8025;-74
2023/03/18 12:14:30;;;;;;;;;;;;;;;22.99;36.24;100005.72;4983792;28;6815;-74
2023/03/18 12:17:06;;;;;;;;;;;;;;;22.89;36.40;100004.94;4979272;28;6977;-77
2023/03/18 12:19:56;;;;;;;;;;;;;;;22.78;36.44;100001.56;4984245;28;6974;-77
2023/03/18 12:23:00;;;;;;;;;;;;;;;22.65;36.17;100000.78;4971573;28;7058;-79
2023/03/18 12:25:59;;;;;;;;;;;;;;;22.38;37.17;100002.69;4978167;28;6808;-76
2023/03/18 12:29:01;;;;;;;;;;;;;;;22.05;37.46;100001.16;4982053;28;6811;-78
2023/03/18 12:31:50;;;;;;;;;;;;;;;21.72;37.99;100010.03;4976662;28;6816;-75
2023/03/18 12:34:56;;;;;;;;;;;;;;;21.42;38.33;100015.31;4977863;28;7205;-78
2023/03/18 12:38:04;;;;;;;;;;;;;;;21.08;39.30;100012.78;4973385;28;7709;-75
2023/03/18 12:41:02;;;;;;;;;;;;;;;20.72;40.21;100018.00;4963351;28;8149;-77
2023/03/18 12:43:44;;;;;;;;;;;;;;;20.43;41.07;100023.16;4984027;28;6820;-76
2023/03/18 12:46:39;;;;;;;;;;;;;;;20.19;42.00;100028.34;4983609;28;7031;-77
2023/03/18 12:49:36;;;;;;;;;;;;;;;19.91;42.64;100024.75;4984071;28;6945;-77
2023/03/18 12:52:13;;;;;;;;;;;;;;;19.64;43.67;100029.81;4909429;28;7342;-78
2023/03/18 12:54:57;;;;;;;;;;;;;;;19.42;43.82;100021.09;4975484;28;7195;-76
2023/03/18 12:58:01;;;;;;;;;;;;;;;19.23;44.36;100018.38;4977607;28;7010;-78
2023/03/18 13:00:36;;;;;;;;;;;;;;;19.02;44.82;100013.91;4978299;28;7410;-78
2023/03/18 13:03:16;;;;;;;;;;;;;;;18.96;45.65;100022.47;4974694;28;6977;-78
2023/03/18 13:05:57;;;;;;;;;;;;;;;18.94;45.53;100020.72;4980905;28;7690;-78
2023/03/18 13:08:45;;;;;;;;;;;;;;;18.99;45.37;100013.84;4972169;28;7362;-77
2023/03/18 13:11:33;;;;;;;;;;;;;;;19.08;45.50;100010.47;4982284;28;6998;-77
2023/03/18 13:14:35;;;;;;;;;;;;;;;19.23;45.79;100007.09;4981487;28;6816;-77
2023/03/18 13:17:03;;;;;;;;;;;;;;;19.36;45.73;100000.25;4976556;28;6816;-77
2023/03/18 13:19:30;;;;;;;;;;;;;;;19.50;45.00;100006.38;4986300;28;6812;-78